Pittsburgh, PA (15217)

7:43 PM EDT on May 30, 2015 (GMT -0400)
Carnegie Mellon University | | Change Station
CLOSE
Current Station
Personal Weather Station
Location: Pittsburgh, PA
Elevation: 961 ft
Nearby Weather Stations

Elev 961 ft 40.44 °N, 79.94 °W | Updated 1 minute ago

Overcast
Overcast
77.3 °F
Feels Like 79 °F
N
0.0
Wind Variable Wind from ESE
Gusts 2.9 mph

Today
High -- | Low -- °F
--% Chance of Precip.
Yesterday
High -- | Low -- °F
Precip. -- in
5:52 AM 8:42 PM
Waxing Gibbous, 92% visible
Pressure 30.02 in
Visibility 10.0 miles
Clouds Mostly Cloudy 11000 ft
Heat Index 79 °F
Dew Point 69 °F
Humidity 74%
Rainfall -999.00 in
Snow Depth Not available.
UV 1 out of 12
Pollen 8.80 out of 12
Air Quality Not available.
Flu Activity Sporadic
METAR KAGC 302253Z AUTO 17006KT 10SM BKN110 23/18 A3003 RMK AO2 SLP165 T02280178 TSNO

More Conditions Fewer Conditions

Pressure 30.02 in
Visibility 10.0 miles
Clouds Mostly Cloudy 11000 ft
Heat Index 79 °F
Dew Point 69 °F
Humidity 74%
Rainfall -999.00 in
Snow Depth Not available.
UV 1 out of 12
Pollen 8.80 out of 12
Air Quality Not available.
Flu Activity Sporadic
METAR KAGC 302253Z AUTO 17006KT 10SM BKN110 23/18 A3003 RMK AO2 SLP165 T02280178 TSNO

More Conditions Fewer Conditions

10-Day Weather Forecast

Almanac

Astronomy

May. 30, 2015 Rise Set
Actual Time
Civil Twilight
Nautical Twilight
Astronomical Twilight
Moon
Length of Visible Light
Length of Day
Tomorrow will be .
, % of the Moon is Illuminated

Today's Extremes

State Highs State Lows

Community

WunderPhotos

Upload Photos

1,825,558 photos uploaded!

WunderBlogs® & News

Nearby

Air Quality

  Air Quality AQ Index Pollutant
Not available.

Snow Depth

Station Depth Elevation

Earthquake Activity

City Distance Mag. Time & Date
Minimum magnitude displayed is 2.5.

Coastal Water Temperatures

Place Temperature

Stations

Nearby Weather Stations

Station Location Temp. Windchill Dew Point Humidity Wind Precip. Elev Updated Type